WetterOnline ( https://www.wetteronline.de )

Wetter aktuell Konstanz

Aktuelles Wetter: Konstanz (397m)

6-stündlich | Neueste Meldungen
Ortszeit Temperatur Wetter
Mo, 20.05. 2:00 10.3° C wolkenlos
So, 19.05. 20:00 19.3° C wolkenlos
So, 19.05. 14:00 18.4° C fast wolkenlos
So, 19.05. 8:00 10.8° C bewölkt
So, 19.05. 2:00 10.4° C bedeckt
Sa, 18.05. 20:00 18.1° C bewölkt
Sa, 18.05. 14:00 20.2° C wolkenlos
Sa, 18.05. 8:00 10.8° C bewölkt
Ortszeit Temperatur Wetter
Mo, 20.05. 4:00 9.7° C wolkig
Mo, 20.05. 3:40 9.4° C bedeckt
Mo, 20.05. 3:30 9.8° C wolkig
Mo, 20.05. 3:20 9.8° C wolkig
Mo, 20.05. 3:10 9.7° C bewölkt
Mo, 20.05. 3:00 9.8° C leicht bewölkt
Mo, 20.05. 2:50 9.8° C leicht bewölkt
Mo, 20.05. 2:30 9.8° C wolkenlos
Mo, 20.05. 2:00 10.3° C wolkenlos
Mo, 20.05. 1:30 10.5° C wolkenlos
Mo, 20.05. 1:00 11.2° C fast wolkenlos
Ortszeit Relative Feuchte Sichtweite
Mo, 20.05. 2:00 93% 60 km
So, 19.05. 20:00 48% >70 km
So, 19.05. 14:00 58% 50 km
So, 19.05. 8:00 93% 15 km
So, 19.05. 2:00 95% 35 km
Sa, 18.05. 20:00 56% 65 km
Sa, 18.05. 14:00 48% 45 km
Sa, 18.05. 8:00 85% 45 km
Ortszeit Relative Feuchte Sichtweite
Mo, 20.05. 4:00 95% 40 km
Mo, 20.05. 3:40 93% -
Mo, 20.05. 3:30 94% 55 km
Mo, 20.05. 3:20 94% -
Mo, 20.05. 3:10 93% -
Mo, 20.05. 3:00 93% 45 km
Mo, 20.05. 2:50 93% -
Mo, 20.05. 2:30 93% 45 km
Mo, 20.05. 2:00 93% 60 km
Mo, 20.05. 1:30 92% 50 km
Mo, 20.05. 1:00 90% 60 km
Ortszeit Niederschlagsmenge Niederschlagsart
Mo, 20.05. 2:00 0.0 l/m2 in 6 Std. -
So, 19.05. 20:00 0.0 l/m2 in 12 Std. -
So, 19.05. 14:00 0.0 l/m2 in 6 Std. -
So, 19.05. 8:00 1 l/m2 in 12 Std. -
So, 19.05. 2:00 1 l/m2 in 6 Std. Regen
Sa, 18.05. 20:00 0.0 l/m2 in 12 Std. -
Sa, 18.05. 14:00 0.0 l/m2 in 6 Std. -
Sa, 18.05. 8:00 0.0 l/m2 in 12 Std. -
Ortszeit Niederschlagsmenge Niederschlagsart
Mo, 20.05. 4:00 0.0 l/m2 in 1 Std. -
Mo, 20.05. 3:40 keine Meldung -
Mo, 20.05. 3:30 0.0 l/m2 in 30 Min -
Mo, 20.05. 3:20 keine Meldung -
Mo, 20.05. 3:10 keine Meldung -
Mo, 20.05. 3:00 0.0 l/m2 in 1 Std. -
Mo, 20.05. 2:50 keine Meldung -
Mo, 20.05. 2:30 0.0 l/m2 in 30 Min -
Mo, 20.05. 2:00 0.0 l/m2 in 1 Std. -
Mo, 20.05. 1:30 0.0 l/m2 in 30 Min -
Mo, 20.05. 1:00 0.0 l/m2 in 1 Std. -
Ortszeit Stärke Spitze Richtung
km/h Bft. km/h Grad Sektor
Mo, 20.05. 2:00 4 1 14 30° NO
So, 19.05. 20:00 7 2 25 260° W
So, 19.05. 14:00 14 3 25 240° SW
So, 19.05. 8:00 6 1 13 300° NW
So, 19.05. 2:00 6 1 37 360° N
Sa, 18.05. 20:00 11 2 25 300° NW
Sa, 18.05. 14:00 9 2 19 260° W
Sa, 18.05. 8:00 4 1 11 260° W
Ortszeit Stärke Spitze Richtung
km/h Bft. km/h Grad Sektor
Mo, 20.05. 4:00 4 1 7 360° N
Mo, 20.05. 3:40 4 1 - 20° N
Mo, 20.05. 3:30 4 1 7 350° N
Mo, 20.05. 3:20 4 1 - 350° N
Mo, 20.05. 3:10 4 1 - 350° N
Mo, 20.05. 3:00 4 1 7 350° N
Mo, 20.05. 2:50 4 1 - 350° N
Mo, 20.05. 2:30 4 1 7 70° O
Mo, 20.05. 2:00 4 1 7 30° NO
Mo, 20.05. 1:30 4 1 7 40° NO
Mo, 20.05. 1:00 4 1 7 350° N
Ortszeit Untergrenze Bedeckung Gattung
total tief tief mittel hoch
Mo, 20.05. 2:00 - 0/8 0/8 - - -
So, 19.05. 20:00 - 0/8 0/8 - - -
So, 19.05. 14:00 1800 m 1/8 1/8 - - -
So, 19.05. 8:00 60 m 7/8 7/8 - - -
So, 19.05. 2:00 3000 m 8/8 8/8 - - -
Sa, 18.05. 20:00 2100 m 8/8 5/8 - - -
Sa, 18.05. 14:00 - 0/8 0/8 - - -
Sa, 18.05. 8:00 2100 m 7/8 7/8 - - -
Ortszeit Bedeckungsgrad in Achtel und Wolkenuntergrenze
Mo, 20.05. 4:00 8(7200m)
Mo, 20.05. 3:40 8
Mo, 20.05. 3:30 8(7500m)
Mo, 20.05. 3:20 8(7500m)
Mo, 20.05. 3:10 7
Mo, 20.05. 3:00 6(8400m)
Mo, 20.05. 2:50 6(8400m)
Mo, 20.05. 2:30 keine Wolken
Mo, 20.05. 2:00 keine Wolken
Mo, 20.05. 1:30 keine Wolken
Mo, 20.05. 1:00 1(8400m)
Ortszeit Luftdruck NN (hPa) Tendenz (hPa in 3 Std.)
Mo, 20.05. 2:00 1012 + 0,1
So, 19.05. 20:00 1010 - 0,1
So, 19.05. 14:00 1011 - 1,4
So, 19.05. 8:00 1014 + 0,8
So, 19.05. 2:00 1014 - 0,4
Sa, 18.05. 20:00 1010 + 0,3
Sa, 18.05. 14:00 1011 - 0,9
Sa, 18.05. 8:00 1014 + 0,8
Ortszeit Luftdruck NN (hPa) Tendenz (hPa in 3 Std.)
Mo, 20.05. 4:00 1012 - 0,1
Mo, 20.05. 3:40 1012 keine Meldung
Mo, 20.05. 3:30 1012 - 0,2
Mo, 20.05. 3:20 1012 keine Meldung
Mo, 20.05. 3:10 1012 keine Meldung
Mo, 20.05. 3:00 1012 - 0,4
Mo, 20.05. 2:50 1012 keine Meldung
Mo, 20.05. 2:30 1012 - 0,3
Mo, 20.05. 2:00 1012 + 0,1
Mo, 20.05. 1:30 1012 + 0,3
Mo, 20.05. 1:00 1012 + 0,4
Ortszeit Schneehöhe (cm)
Mo, 20.05. 2:00 0
So, 19.05. 20:00 0
So, 19.05. 14:00 0
So, 19.05. 8:00 0
So, 19.05. 2:00 0
Sa, 18.05. 20:00 0
Sa, 18.05. 14:00 0
Sa, 18.05. 8:00 0
Ortszeit Schneehöhe (cm)
Mo, 20.05. 4:00 0
Mo, 20.05. 3:40 -
Mo, 20.05. 3:30 0
Mo, 20.05. 3:20 0
Mo, 20.05. 3:10 -
Mo, 20.05. 3:00 0
Mo, 20.05. 2:50 0
Mo, 20.05. 2:30 0
Mo, 20.05. 2:00 0
Mo, 20.05. 1:30 0
Mo, 20.05. 1:00 0
Link zu dieser Seite / Seite empfehlen

Das Wetter in ...